sensor_id;sensor_type;location;lat;lon;timestamp;pressure;altitude;pressure_sealevel;temperature;humidity
61039;BME280;46919;45.816;3.104;2022-07-05T00:02:12;98257.22;;;18.05;74.26
61039;BME280;46919;45.816;3.104;2022-07-05T00:04:37;98255.28;;;18.01;74.26
61039;BME280;46919;45.816;3.104;2022-07-05T00:07:03;98261.28;;;17.98;74.40
61039;BME280;46919;45.816;3.104;2022-07-05T00:09:48;98260.75;;;17.96;74.49
61039;BME280;46919;45.816;3.104;2022-07-05T00:12:14;98267.25;;;17.89;74.68
61039;BME280;46919;45.816;3.104;2022-07-05T00:14:40;98265.53;;;17.83;75.14
61039;BME280;46919;45.816;3.104;2022-07-05T00:17:06;98260.03;;;17.78;75.47
61039;BME280;46919;45.816;3.104;2022-07-05T00:19:31;98252.94;;;17.82;75.68
61039;BME280;46919;45.816;3.104;2022-07-05T00:21:57;98254.00;;;17.76;75.66
61039;BME280;46919;45.816;3.104;2022-07-05T00:24:23;98262.16;;;17.71;76.22
61039;BME280;46919;45.816;3.104;2022-07-05T00:26:49;98262.69;;;17.68;75.98
61039;BME280;46919;45.816;3.104;2022-07-05T00:29:14;98253.13;;;17.65;76.19
61039;BME280;46919;45.816;3.104;2022-07-05T00:31:40;98261.25;;;17.60;76.55
61039;BME280;46919;45.816;3.104;2022-07-05T00:34:05;98259.81;;;17.52;76.92
61039;BME280;46919;45.816;3.104;2022-07-05T00:36:30;98261.72;;;17.47;77.48
61039;BME280;46919;45.816;3.104;2022-07-05T00:38:56;98259.00;;;17.52;77.92
61039;BME280;46919;45.816;3.104;2022-07-05T00:41:21;98262.53;;;17.47;77.96
61039;BME280;46919;45.816;3.104;2022-07-05T00:43:54;98260.09;;;17.51;78.44
61039;BME280;46919;45.816;3.104;2022-07-05T00:46:20;98259.50;;;17.44;78.29
61039;BME280;46919;45.816;3.104;2022-07-05T00:48:45;98260.84;;;17.41;78.31
61039;BME280;46919;45.816;3.104;2022-07-05T00:51:11;98253.66;;;17.35;78.68
61039;BME280;46919;45.816;3.104;2022-07-05T00:53:36;98255.56;;;17.29;78.65
61039;BME280;46919;45.816;3.104;2022-07-05T00:56:03;98257.66;;;17.22;78.79
61039;BME280;46919;45.816;3.104;2022-07-05T00:58:28;98252.97;;;17.17;78.75
61039;BME280;46919;45.816;3.104;2022-07-05T01:00:54;98259.50;;;17.11;78.92
61039;BME280;46919;45.816;3.104;2022-07-05T01:03:20;98257.47;;;17.01;79.12
61039;BME280;46919;45.816;3.104;2022-07-05T01:05:45;98255.50;;;16.97;79.09
61039;BME280;46919;45.816;3.104;2022-07-05T01:08:13;98251.97;;;16.96;78.93
61039;BME280;46919;45.816;3.104;2022-07-05T01:10:39;98255.47;;;16.92;79.10
61039;BME280;46919;45.816;3.104;2022-07-05T01:13:06;98255.47;;;16.92;79.18
61039;BME280;46919;45.816;3.104;2022-07-05T01:15:32;98253.56;;;16.92;79.00
61039;BME280;46919;45.816;3.104;2022-07-05T01:17:58;98255.75;;;16.95;80.19
61039;BME280;46919;45.816;3.104;2022-07-05T01:20:24;98244.59;;;16.97;79.62
61039;BME280;46919;45.816;3.104;2022-07-05T01:25:17;98253.63;;;16.75;80.30
61039;BME280;46919;45.816;3.104;2022-07-05T01:27:43;98250.91;;;16.75;80.52
61039;BME280;46919;45.816;3.104;2022-07-05T01:30:09;98254.38;;;16.71;80.48
61039;BME280;46919;45.816;3.104;2022-07-05T01:32:35;98260.06;;;16.64;80.87
61039;BME280;46919;45.816;3.104;2022-07-05T01:35:01;98259.47;;;16.62;80.89
61039;BME280;46919;45.816;3.104;2022-07-05T01:37:28;98255.59;;;16.58;81.19
61039;BME280;46919;45.816;3.104;2022-07-05T01:39:54;98261.56;;;16.55;80.77
61039;BME280;46919;45.816;3.104;2022-07-05T01:42:20;98251.38;;;16.45;81.04
61039;BME280;46919;45.816;3.104;2022-07-05T01:44:46;98255.16;;;16.44;80.45
61039;BME280;46919;45.816;3.104;2022-07-05T01:47:11;98252.94;;;16.41;80.99
61039;BME280;46919;45.816;3.104;2022-07-05T01:49:43;98252.63;;;16.37;81.00
61039;BME280;46919;45.816;3.104;2022-07-05T01:52:12;98258.84;;;16.33;81.31
61039;BME280;46919;45.816;3.104;2022-07-05T01:54:38;98259.34;;;16.29;81.56
61039;BME280;46919;45.816;3.104;2022-07-05T01:57:05;98264.25;;;16.27;81.73
61039;BME280;46919;45.816;3.104;2022-07-05T01:59:35;98265.00;;;16.23;82.03
61039;BME280;46919;45.816;3.104;2022-07-05T02:02:01;98260.03;;;16.20;82.57
61039;BME280;46919;45.816;3.104;2022-07-05T02:04:28;98258.63;;;16.17;82.58
61039;BME280;46919;45.816;3.104;2022-07-05T02:06:53;98260.97;;;16.08;83.45
61039;BME280;46919;45.816;3.104;2022-07-05T02:09:19;98259.25;;;16.02;83.71
61039;BME280;46919;45.816;3.104;2022-07-05T02:11:44;98260.81;;;15.98;84.27
61039;BME280;46919;45.816;3.104;2022-07-05T02:14:09;98260.25;;;15.96;84.51
61039;BME280;46919;45.816;3.104;2022-07-05T02:16:36;98260.00;;;15.98;84.33
61039;BME280;46919;45.816;3.104;2022-07-05T02:19:02;98263.00;;;15.96;84.40
61039;BME280;46919;45.816;3.104;2022-07-05T02:21:28;98255.88;;;15.95;84.56
61039;BME280;46919;45.816;3.104;2022-07-05T02:23:54;98263.25;;;15.94;84.50
61039;BME280;46919;45.816;3.104;2022-07-05T02:26:20;98265.66;;;15.91;85.26
61039;BME280;46919;45.816;3.104;2022-07-05T02:28:45;98262.31;;;15.89;84.97
61039;BME280;46919;45.816;3.104;2022-07-05T02:31:11;98261.19;;;15.85;85.34
61039;BME280;46919;45.816;3.104;2022-07-05T02:33:37;98270.44;;;15.84;85.40
61039;BME280;46919;45.816;3.104;2022-07-05T02:36:10;98263.25;;;15.78;85.56
61039;BME280;46919;45.816;3.104;2022-07-05T02:38:36;98261.84;;;15.75;85.78
61039;BME280;46919;45.816;3.104;2022-07-05T02:41:09;98261.00;;;15.74;85.73
61039;BME280;46919;45.816;3.104;2022-07-05T02:43:35;98261.41;;;15.66;86.24
61039;BME280;46919;45.816;3.104;2022-07-05T02:46:02;98265.69;;;15.62;86.35
61039;BME280;46919;45.816;3.104;2022-07-05T02:48:28;98271.91;;;15.57;86.81
61039;BME280;46919;45.816;3.104;2022-07-05T02:50:53;98272.91;;;15.51;86.69
61039;BME280;46919;45.816;3.104;2022-07-05T02:53:19;98272.41;;;15.54;87.24
61039;BME280;46919;45.816;3.104;2022-07-05T02:55:44;98274.03;;;15.55;87.07
61039;BME280;46919;45.816;3.104;2022-07-05T02:58:09;98275.88;;;15.50;87.34
61039;BME280;46919;45.816;3.104;2022-07-05T03:00:35;98276.28;;;15.42;87.58
61039;BME280;46919;45.816;3.104;2022-07-05T03:03:00;98277.94;;;15.43;87.89
61039;BME280;46919;45.816;3.104;2022-07-05T03:05:26;98276.28;;;15.42;87.81
61039;BME280;46919;45.816;3.104;2022-07-05T03:07:51;98278.91;;;15.36;88.10
61039;BME280;46919;45.816;3.104;2022-07-05T03:10:17;98275.28;;;15.31;88.57
61039;BME280;46919;45.816;3.104;2022-07-05T03:12:42;98284.75;;;15.28;88.74
61039;BME280;46919;45.816;3.104;2022-07-05T03:15:08;98285.25;;;15.25;88.78
61039;BME280;46919;45.816;3.104;2022-07-05T03:17:34;98290.69;;;15.25;88.78
61039;BME280;46919;45.816;3.104;2022-07-05T03:19:59;98290.94;;;15.24;88.48
61039;BME280;46919;45.816;3.104;2022-07-05T03:22:24;98285.97;;;15.20;89.02
61039;BME280;46919;45.816;3.104;2022-07-05T03:24:50;98288.06;;;15.13;89.51
61039;BME280;46919;45.816;3.104;2022-07-05T03:27:15;98289.59;;;15.09;89.54
61039;BME280;46919;45.816;3.104;2022-07-05T03:29:41;98294.81;;;15.11;89.51
61039;BME280;46919;45.816;3.104;2022-07-05T03:32:07;98295.28;;;15.08;89.52
61039;BME280;46919;45.816;3.104;2022-07-05T03:34:32;98293.06;;;15.04;89.84
61039;BME280;46919;45.816;3.104;2022-07-05T03:36:57;98297.34;;;15.00;89.82
61039;BME280;46919;45.816;3.104;2022-07-05T03:39:23;98299.94;;;14.95;90.02
61039;BME280;46919;45.816;3.104;2022-07-05T03:41:48;98300.09;;;14.89;90.11
61039;BME280;46919;45.816;3.104;2022-07-05T03:44:13;98299.03;;;14.90;90.40
61039;BME280;46919;45.816;3.104;2022-07-05T03:46:39;98306.34;;;14.89;90.30
61039;BME280;46919;45.816;3.104;2022-07-05T03:49:04;98300.00;;;14.83;90.63
61039;BME280;46919;45.816;3.104;2022-07-05T03:51:30;98315.53;;;14.83;90.68
61039;BME280;46919;45.816;3.104;2022-07-05T03:53:55;98304.03;;;14.81;90.13
61039;BME280;46919;45.816;3.104;2022-07-05T03:56:20;98319.22;;;14.77;90.96
61039;BME280;46919;45.816;3.104;2022-07-05T03:58:49;98315.88;;;14.75;91.30
61039;BME280;46919;45.816;3.104;2022-07-05T04:01:16;98311.31;;;14.92;91.32
61039;BME280;46919;45.816;3.104;2022-07-05T04:03:41;98315.84;;;14.87;91.00
61039;BME280;46919;45.816;3.104;2022-07-05T04:06:08;98315.41;;;14.78;91.05
61039;BME280;46919;45.816;3.104;2022-07-05T04:08:34;98319.09;;;14.72;91.85
61039;BME280;46919;45.816;3.104;2022-07-05T04:11:00;98322.88;;;14.71;91.90
61039;BME280;46919;45.816;3.104;2022-07-05T04:13:26;98317.06;;;14.67;92.18
61039;BME280;46919;45.816;3.104;2022-07-05T04:15:51;98321.13;;;14.64;91.99
61039;BME280;46919;45.816;3.104;2022-07-05T04:18:18;98325.75;;;14.64;92.56
61039;BME280;46919;45.816;3.104;2022-07-05T04:20:44;98331.06;;;14.71;91.81
61039;BME280;46919;45.816;3.104;2022-07-05T04:23:09;98330.56;;;14.74;92.27
61039;BME280;46919;45.816;3.104;2022-07-05T04:25:34;98333.78;;;14.71;92.50
61039;BME280;46919;45.816;3.104;2022-07-05T04:28:00;98331.88;;;14.71;92.70
61039;BME280;46919;45.816;3.104;2022-07-05T04:30:26;98339.44;;;14.69;92.43
61039;BME280;46919;45.816;3.104;2022-07-05T04:32:51;98331.06;;;14.71;92.94
61039;BME280;46919;45.816;3.104;2022-07-05T04:35:17;98333.16;;;14.68;93.31
61039;BME280;46919;45.816;3.104;2022-07-05T04:37:43;98330.31;;;14.75;92.83
61039;BME280;46919;45.816;3.104;2022-07-05T04:40:10;98335.63;;;14.82;93.03
61039;BME280;46919;45.816;3.104;2022-07-05T04:42:36;98336.19;;;14.84;92.95
61039;BME280;46919;45.816;3.104;2022-07-05T04:45:03;98335.72;;;14.87;92.85
61039;BME280;46919;45.816;3.104;2022-07-05T04:47:28;98336.41;;;14.94;92.87
61039;BME280;46919;45.816;3.104;2022-07-05T04:49:55;98340.28;;;14.98;93.02
61039;BME280;46919;45.816;3.104;2022-07-05T04:52:22;98347.50;;;15.04;93.19
61039;BME280;46919;45.816;3.104;2022-07-05T04:54:47;98348.84;;;15.19;93.37
61039;BME280;46919;45.816;3.104;2022-07-05T04:57:13;98348.56;;;15.32;92.79
61039;BME280;46919;45.816;3.104;2022-07-05T04:59:38;98354.69;;;15.39;92.54
61039;BME280;46919;45.816;3.104;2022-07-05T05:02:04;98360.31;;;15.50;92.79
61039;BME280;46919;45.816;3.104;2022-07-05T05:04:29;98356.22;;;15.64;92.52
61039;BME280;46919;45.816;3.104;2022-07-05T05:06:55;98357.84;;;15.65;91.59
61039;BME280;46919;45.816;3.104;2022-07-05T05:09:20;98351.41;;;15.71;91.76
61039;BME280;46919;45.816;3.104;2022-07-05T05:11:47;98355.59;;;15.91;92.15
61039;BME280;46919;45.816;3.104;2022-07-05T05:14:12;98355.59;;;15.91;91.37
61039;BME280;46919;45.816;3.104;2022-07-05T05:16:37;98350.16;;;15.91;90.67
61039;BME280;46919;45.816;3.104;2022-07-05T05:19:03;98358.31;;;15.91;90.46
61039;BME280;46919;45.816;3.104;2022-07-05T05:21:28;98356.72;;;15.95;90.53
61039;BME280;46919;45.816;3.104;2022-07-05T05:23:54;98354.75;;;16.07;90.58
61039;BME280;46919;45.816;3.104;2022-07-05T05:26:19;98359.22;;;16.14;89.69
61039;BME280;46919;45.816;3.104;2022-07-05T05:28:45;98354.16;;;16.22;89.63
61039;BME280;46919;45.816;3.104;2022-07-05T05:31:10;98353.75;;;16.30;89.53
61039;BME280;46919;45.816;3.104;2022-07-05T05:33:36;98370.50;;;16.39;89.68
61039;BME280;46919;45.816;3.104;2022-07-05T05:36:02;98370.56;;;16.44;90.13
61039;BME280;46919;45.816;3.104;2022-07-05T05:38:27;98369.91;;;16.54;90.13
61039;BME280;46919;45.816;3.104;2022-07-05T05:40:53;98371.84;;;16.59;89.74
61039;BME280;46919;45.816;3.104;2022-07-05T05:43:18;98372.50;;;16.66;89.07
61039;BME280;46919;45.816;3.104;2022-07-05T05:45:44;98380.19;;;16.69;88.92
61039;BME280;46919;45.816;3.104;2022-07-05T05:48:09;98377.75;;;16.73;88.73
61039;BME280;46919;45.816;3.104;2022-07-05T05:50:37;98375.34;;;16.76;88.91
61039;BME280;46919;45.816;3.104;2022-07-05T05:53:04;98376.25;;;16.82;88.14
61039;BME280;46919;45.816;3.104;2022-07-05T05:55:30;98376.69;;;16.91;87.33
61039;BME280;46919;45.816;3.104;2022-07-05T05:57:56;98376.22;;;16.99;87.33
61039;BME280;46919;45.816;3.104;2022-07-05T06:00:27;98375.78;;;17.07;87.47
61039;BME280;46919;45.816;3.104;2022-07-05T06:02:52;98381.94;;;17.19;87.60
61039;BME280;46919;45.816;3.104;2022-07-05T06:05:18;98380.69;;;17.32;87.42
61039;BME280;46919;45.816;3.104;2022-07-05T06:07:48;98383.53;;;17.43;86.67
61039;BME280;46919;45.816;3.104;2022-07-05T06:10:33;98390.13;;;17.47;86.70
61039;BME280;46919;45.816;3.104;2022-07-05T06:13:01;98388.53;;;17.51;87.62
61039;BME280;46919;45.816;3.104;2022-07-05T06:15:27;98389.97;;;17.59;88.10
61039;BME280;46919;45.816;3.104;2022-07-05T06:17:53;98390.59;;;17.66;88.30
61039;BME280;46919;45.816;3.104;2022-07-05T06:20:22;98386.25;;;17.70;87.47
61039;BME280;46919;45.816;3.104;2022-07-05T06:22:50;98395.03;;;17.72;88.08
61039;BME280;46919;45.816;3.104;2022-07-05T06:25:15;98391.88;;;17.85;88.67
61039;BME280;46919;45.816;3.104;2022-07-05T06:27:46;98395.16;;;17.87;87.07
61039;BME280;46919;45.816;3.104;2022-07-05T06:30:14;98391.88;;;17.85;86.35
61039;BME280;46919;45.816;3.104;2022-07-05T06:32:40;98392.41;;;17.87;85.18
61039;BME280;46919;45.816;3.104;2022-07-05T06:35:06;98395.25;;;17.92;84.07
61039;BME280;46919;45.816;3.104;2022-07-05T06:37:41;98397.75;;;17.99;82.65
61039;BME280;46919;45.816;3.104;2022-07-05T06:40:08;98398.91;;;18.03;82.70
61039;BME280;46919;45.816;3.104;2022-07-05T06:42:34;98397.56;;;18.11;81.71
61039;BME280;46919;45.816;3.104;2022-07-05T06:44:59;98407.19;;;18.14;81.43
61039;BME280;46919;45.816;3.104;2022-07-05T06:47:25;98399.84;;;18.19;80.55
61039;BME280;46919;45.816;3.104;2022-07-05T06:49:50;98402.63;;;18.24;79.65
61039;BME280;46919;45.816;3.104;2022-07-05T06:52:16;98399.34;;;18.27;78.99
61039;BME280;46919;45.816;3.104;2022-07-05T06:54:41;98402.94;;;18.33;79.27
61039;BME280;46919;45.816;3.104;2022-07-05T06:57:07;98406.00;;;18.37;80.55
61039;BME280;46919;45.816;3.104;2022-07-05T06:59:32;98405.22;;;18.41;79.68
61039;BME280;46919;45.816;3.104;2022-07-05T07:01:57;98399.19;;;18.44;78.72
61039;BME280;46919;45.816;3.104;2022-07-05T07:04:23;98402.75;;;18.45;78.05
61039;BME280;46919;45.816;3.104;2022-07-05T07:06:48;98397.56;;;18.49;77.69
61039;BME280;46919;45.816;3.104;2022-07-05T07:09:14;98406.94;;;18.58;76.45
61039;BME280;46919;45.816;3.104;2022-07-05T07:11:47;98413.31;;;18.69;75.75
61039;BME280;46919;45.816;3.104;2022-07-05T07:14:14;98408.94;;;18.73;73.95
61039;BME280;46919;45.816;3.104;2022-07-05T07:16:39;98408.97;;;18.78;72.67
61039;BME280;46919;45.816;3.104;2022-07-05T07:19:05;98408.50;;;18.86;71.78
61039;BME280;46919;45.816;3.104;2022-07-05T07:21:30;98404.38;;;18.89;71.84
61039;BME280;46919;45.816;3.104;2022-07-05T07:23:56;98408.78;;;18.90;71.22
61039;BME280;46919;45.816;3.104;2022-07-05T07:26:21;98411.81;;;18.93;71.49
61039;BME280;46919;45.816;3.104;2022-07-05T07:28:46;98412.66;;;18.99;71.96
61039;BME280;46919;45.816;3.104;2022-07-05T07:31:12;98418.44;;;19.08;72.44
61039;BME280;46919;45.816;3.104;2022-07-05T07:33:37;98418.22;;;19.14;71.96
61039;BME280;46919;45.816;3.104;2022-07-05T07:36:03;98423.16;;;19.17;71.34
61039;BME280;46919;45.816;3.104;2022-07-05T07:38:29;98420.72;;;19.21;70.87
61039;BME280;46919;45.816;3.104;2022-07-05T07:40:54;98423.72;;;19.25;71.38
61039;BME280;46919;45.816;3.104;2022-07-05T07:43:21;98421.25;;;19.28;71.22
61039;BME280;46919;45.816;3.104;2022-07-05T07:45:47;98421.31;;;19.39;70.70
61039;BME280;46919;45.816;3.104;2022-07-05T07:48:13;98410.91;;;19.46;69.59
61039;BME280;46919;45.816;3.104;2022-07-05T07:50:38;98412.56;;;19.52;69.61
61039;BME280;46919;45.816;3.104;2022-07-05T07:53:04;98418.34;;;19.55;69.62
61039;BME280;46919;45.816;3.104;2022-07-05T07:55:29;98415.34;;;19.67;69.79
61039;BME280;46919;45.816;3.104;2022-07-05T07:57:55;98411.81;;;19.77;68.58
61039;BME280;46919;45.816;3.104;2022-07-05T08:00:21;98411.56;;;19.79;68.33
61039;BME280;46919;45.816;3.104;2022-07-05T08:02:46;98409.38;;;19.86;69.78
61039;BME280;46919;45.816;3.104;2022-07-05T08:05:11;98408.84;;;19.99;69.20
61039;BME280;46919;45.816;3.104;2022-07-05T08:07:37;98409.13;;;20.13;69.25
61039;BME280;46919;45.816;3.104;2022-07-05T08:10:06;98403.59;;;20.23;67.28
61039;BME280;46919;45.816;3.104;2022-07-05T08:12:32;98408.84;;;20.30;66.41
61039;BME280;46919;45.816;3.104;2022-07-05T08:14:58;98408.84;;;20.35;66.93
61039;BME280;46919;45.816;3.104;2022-07-05T08:17:24;98405.50;;;20.49;65.86
61039;BME280;46919;45.816;3.104;2022-07-05T08:19:49;98400.56;;;20.56;65.53
61039;BME280;46919;45.816;3.104;2022-07-05T08:22:33;98397.53;;;20.68;64.68
61039;BME280;46919;45.816;3.104;2022-07-05T08:24:59;98400.81;;;20.75;65.05
61039;BME280;46919;45.816;3.104;2022-07-05T08:27:24;98401.34;;;20.82;64.15
61039;BME280;46919;45.816;3.104;2022-07-05T08:29:50;98393.38;;;20.80;63.80
61039;BME280;46919;45.816;3.104;2022-07-05T08:32:16;98398.88;;;20.80;63.40
61039;BME280;46919;45.816;3.104;2022-07-05T08:34:42;98391.16;;;20.88;63.45
61039;BME280;46919;45.816;3.104;2022-07-05T08:37:08;98398.56;;;20.92;63.77
61039;BME280;46919;45.816;3.104;2022-07-05T08:39:34;98396.34;;;21.05;64.30
61039;BME280;46919;45.816;3.104;2022-07-05T08:42:00;98394.34;;;21.21;63.89
61039;BME280;46919;45.816;3.104;2022-07-05T08:44:32;98398.66;;;21.37;61.77
61039;BME280;46919;45.816;3.104;2022-07-05T08:47:02;98390.69;;;21.35;60.83
61039;BME280;46919;45.816;3.104;2022-07-05T08:49:28;98393.16;;;21.37;61.02
61039;BME280;46919;45.816;3.104;2022-07-05T08:51:56;98388.13;;;21.44;60.76
61039;BME280;46919;45.816;3.104;2022-07-05T08:54:23;98384.28;;;21.56;59.48
61039;BME280;46919;45.816;3.104;2022-07-05T08:56:49;98377.03;;;21.65;59.20
61039;BME280;46919;45.816;3.104;2022-07-05T08:59:15;98375.34;;;21.74;58.27
61039;BME280;46919;45.816;3.104;2022-07-05T09:01:41;98374.44;;;21.84;57.30
61039;BME280;46919;45.816;3.104;2022-07-05T09:04:10;98372.97;;;21.97;55.47
61039;BME280;46919;45.816;3.104;2022-07-05T09:06:40;98366.00;;;22.04;55.43
61039;BME280;46919;45.816;3.104;2022-07-05T09:09:06;98375.59;;;22.12;56.88
61039;BME280;46919;45.816;3.104;2022-07-05T09:11:41;98376.66;;;22.16;56.73
61039;BME280;46919;45.816;3.104;2022-07-05T09:14:24;98378.25;;;22.22;56.34
61039;BME280;46919;45.816;3.104;2022-07-05T09:16:50;98380.44;;;22.25;56.27
61039;BME280;46919;45.816;3.104;2022-07-05T09:19:16;98375.09;;;22.39;55.53
61039;BME280;46919;45.816;3.104;2022-07-05T09:21:42;98371.47;;;22.44;54.70
61039;BME280;46919;45.816;3.104;2022-07-05T09:24:09;98379.63;;;22.54;54.03
61039;BME280;46919;45.816;3.104;2022-07-05T09:29:18;98378.69;;;22.88;54.74
61039;BME280;46919;45.816;3.104;2022-07-05T09:31:46;98383.09;;;22.89;53.76
61039;BME280;46919;45.816;3.104;2022-07-05T09:34:14;98379.53;;;22.89;53.75
61039;BME280;46919;45.816;3.104;2022-07-05T09:37:01;98369.19;;;23.00;50.79
61039;BME280;46919;45.816;3.104;2022-07-05T09:42:21;98380.56;;;23.17;51.81
61039;BME280;46919;45.816;3.104;2022-07-05T09:44:50;98387.44;;;23.20;50.34
61039;BME280;46919;45.816;3.104;2022-07-05T09:47:18;98376.50;;;23.33;49.79
61039;BME280;46919;45.816;3.104;2022-07-05T09:49:48;98376.34;;;23.44;48.51
61039;BME280;46919;45.816;3.104;2022-07-05T09:52:30;98372.91;;;23.33;46.52
61039;BME280;46919;45.816;3.104;2022-07-05T09:57:32;98373.69;;;23.39;47.76
61039;BME280;46919;45.816;3.104;2022-07-05T10:00:05;98369.53;;;23.60;47.72
61039;BME280;46919;45.816;3.104;2022-07-05T10:02:51;98374.16;;;23.84;48.69
61039;BME280;46919;45.816;3.104;2022-07-05T10:05:24;98379.41;;;23.99;47.56
61039;BME280;46919;45.816;3.104;2022-07-05T10:07:51;98381.56;;;24.02;47.62
61039;BME280;46919;45.816;3.104;2022-07-05T10:10:19;98389.94;;;23.97;47.81
61039;BME280;46919;45.816;3.104;2022-07-05T10:12:47;98381.94;;;24.15;47.45
61039;BME280;46919;45.816;3.104;2022-07-05T10:15:18;98384.53;;;24.25;44.76
61039;BME280;46919;45.816;3.104;2022-07-05T10:17:53;98386.66;;;24.28;46.43
61039;BME280;46919;45.816;3.104;2022-07-05T10:23:15;98375.53;;;24.33;45.51
61039;BME280;46919;45.816;3.104;2022-07-05T10:25:43;98384.66;;;24.48;46.50
61039;BME280;46919;45.816;3.104;2022-07-05T10:28:10;98378.78;;;24.68;45.51
61039;BME280;46919;45.816;3.104;2022-07-05T10:30:36;98383.41;;;25.01;45.53
61039;BME280;46919;45.816;3.104;2022-07-05T10:33:03;98372.84;;;25.17;44.21
61039;BME280;46919;45.816;3.104;2022-07-05T10:35:29;98373.56;;;25.36;43.53
61039;BME280;46919;45.816;3.104;2022-07-05T10:37:55;98379.28;;;25.54;44.13
61039;BME280;46919;45.816;3.104;2022-07-05T10:40:21;98384.38;;;25.60;43.18
61039;BME280;46919;45.816;3.104;2022-07-05T10:42:58;98386.38;;;25.68;41.90
61039;BME280;46919;45.816;3.104;2022-07-05T10:45:47;98377.59;;;25.66;42.18
61039;BME280;46919;45.816;3.104;2022-07-05T10:48:24;98376.03;;;25.74;40.74
61039;BME280;46919;45.816;3.104;2022-07-05T11:06:41;98385.81;;;25.44;42.05
61039;BME280;46919;45.816;3.104;2022-07-05T11:12:02;98380.75;;;25.09;40.20
61039;BME280;46919;45.816;3.104;2022-07-05T11:14:33;98374.38;;;25.23;42.57
61039;BME280;46919;45.816;3.104;2022-07-05T11:20:04;98370.91;;;25.67;39.82
61039;BME280;46919;45.816;3.104;2022-07-05T11:22:31;98372.69;;;25.63;42.08
61039;BME280;46919;45.816;3.104;2022-07-05T11:24:58;98375.31;;;25.68;41.32
61039;BME280;46919;45.816;3.104;2022-07-05T11:27:24;98369.75;;;25.82;40.82
61039;BME280;46919;45.816;3.104;2022-07-05T11:29:54;98356.78;;;25.92;40.03
61039;BME280;46919;45.816;3.104;2022-07-05T11:32:38;98356.16;;;25.95;39.47
61039;BME280;46919;45.816;3.104;2022-07-05T11:35:19;98348.38;;;25.97;38.55
61039;BME280;46919;45.816;3.104;2022-07-05T11:38:07;98353.00;;;26.10;40.87
61039;BME280;46919;45.816;3.104;2022-07-05T11:40:36;98352.66;;;26.34;40.13
61039;BME280;46919;45.816;3.104;2022-07-05T11:43:03;98354.22;;;26.49;39.39
61039;BME280;46919;45.816;3.104;2022-07-05T11:45:30;98365.25;;;26.72;39.63
61039;BME280;46919;45.816;3.104;2022-07-05T11:47:56;98363.88;;;26.92;37.78
61039;BME280;46919;45.816;3.104;2022-07-05T11:50:30;98361.69;;;26.80;37.46
61039;BME280;46919;45.816;3.104;2022-07-05T11:52:57;98354.31;;;26.67;37.90
61039;BME280;46919;45.816;3.104;2022-07-05T11:55:24;98360.22;;;26.74;37.45
61039;BME280;46919;45.816;3.104;2022-07-05T11:57:51;98364.00;;;26.78;37.94
61039;BME280;46919;45.816;3.104;2022-07-05T12:02:54;98364.25;;;27.08;37.47
61039;BME280;46919;45.816;3.104;2022-07-05T12:05:20;98356.13;;;27.20;38.98
61039;BME280;46919;45.816;3.104;2022-07-05T12:07:50;98362.31;;;27.17;37.84
61039;BME280;46919;45.816;3.104;2022-07-05T12:10:16;98357.59;;;27.18;37.82
61039;BME280;46919;45.816;3.104;2022-07-05T12:13:07;98358.06;;;27.11;35.58
61039;BME280;46919;45.816;3.104;2022-07-05T12:15:33;98358.66;;;26.99;38.10
61039;BME280;46919;45.816;3.104;2022-07-05T12:18:01;98357.41;;;27.14;37.94
61039;BME280;46919;45.816;3.104;2022-07-05T12:20:32;98354.75;;;27.00;36.98
61039;BME280;46919;45.816;3.104;2022-07-05T12:22:58;98355.63;;;27.18;36.68
61039;BME280;46919;45.816;3.104;2022-07-05T12:25:25;98353.09;;;27.39;36.68
61039;BME280;46919;45.816;3.104;2022-07-05T12:27:52;98351.78;;;27.54;35.94
61039;BME280;46919;45.816;3.104;2022-07-05T12:30:19;98338.56;;;27.69;36.40
61039;BME280;46919;45.816;3.104;2022-07-05T12:33:05;98346.72;;;27.65;36.22
61039;BME280;46919;45.816;3.104;2022-07-05T12:35:42;98345.25;;;27.76;35.70
61039;BME280;46919;45.816;3.104;2022-07-05T12:38:14;98340.50;;;27.59;35.67
61039;BME280;46919;45.816;3.104;2022-07-05T12:40:42;98346.06;;;27.77;35.99
61039;BME280;46919;45.816;3.104;2022-07-05T12:43:12;98345.41;;;27.97;35.39
61039;BME280;46919;45.816;3.104;2022-07-05T12:45:39;98341.66;;;28.11;35.44
61039;BME280;46919;45.816;3.104;2022-07-05T12:48:07;98340.44;;;28.29;35.58
61039;BME280;46919;45.816;3.104;2022-07-05T12:50:49;98332.56;;;28.49;32.70
61039;BME280;46919;45.816;3.104;2022-07-05T12:53:16;98332.38;;;28.54;34.60
61039;BME280;46919;45.816;3.104;2022-07-05T12:56:05;98334.88;;;28.29;34.36
61039;BME280;46919;45.816;3.104;2022-07-05T12:58:57;98325.16;;;28.53;35.21
61039;BME280;46919;45.816;3.104;2022-07-05T13:06:23;98336.69;;;29.11;34.62
61039;BME280;46919;45.816;3.104;2022-07-05T13:09:03;98337.16;;;29.22;34.01
61039;BME280;46919;45.816;3.104;2022-07-05T13:11:32;98332.34;;;29.31;33.77
61039;BME280;46919;45.816;3.104;2022-07-05T13:13:57;98332.81;;;29.33;32.64
61039;BME280;46919;45.816;3.104;2022-07-05T13:16:23;98332.53;;;29.26;34.33
61039;BME280;46919;45.816;3.104;2022-07-05T13:18:48;98334.59;;;29.38;34.11
61039;BME280;46919;45.816;3.104;2022-07-05T13:21:14;98335.69;;;29.16;33.79
61039;BME280;46919;45.816;3.104;2022-07-05T13:23:39;98341.09;;;29.21;33.90
61039;BME280;46919;45.816;3.104;2022-07-05T13:26:04;98338.31;;;29.21;33.14
61039;BME280;46919;45.816;3.104;2022-07-05T13:28:30;98340.91;;;29.17;33.95
61039;BME280;46919;45.816;3.104;2022-07-05T13:30:55;98333.69;;;29.46;34.05
61039;BME280;46919;45.816;3.104;2022-07-05T13:33:21;98344.78;;;29.76;33.77
61039;BME280;46919;45.816;3.104;2022-07-05T13:35:46;98331.81;;;30.13;33.35
61039;BME280;46919;45.816;3.104;2022-07-05T13:38:11;98334.63;;;29.29;33.40
61039;BME280;46919;45.816;3.104;2022-07-05T13:40:37;98336.25;;;29.00;33.53
61039;BME280;46919;45.816;3.104;2022-07-05T13:43:02;98339.44;;;29.20;32.98
61039;BME280;46919;45.816;3.104;2022-07-05T13:45:27;98329.81;;;29.59;33.35